sensor_id;sensor_type;location;lat;lon;timestamp;temperature;humidity
72320;SHT30;60269;52.502;16.732;2023-05-27T00:00:45;6.12;93.07
72320;SHT30;60269;52.502;16.732;2023-05-27T00:04:31;6.02;93.49
72320;SHT30;60269;52.502;16.732;2023-05-27T00:08:03;6.08;93.32
72320;SHT30;60269;52.502;16.732;2023-05-27T00:11:36;6.04;93.52
72320;SHT30;60269;52.502;16.732;2023-05-27T00:15:08;5.97;93.91
72320;SHT30;60269;52.502;16.732;2023-05-27T00:18:40;5.98;94.05
72320;SHT30;60269;52.502;16.732;2023-05-27T00:22:13;6.11;93.46
72320;SHT30;60269;52.502;16.732;2023-05-27T00:25:44;6.05;93.86
72320;SHT30;60269;52.502;16.732;2023-05-27T00:29:17;5.87;94.27
72320;SHT30;60269;52.502;16.732;2023-05-27T00:32:49;5.87;94.52
72320;SHT30;60269;52.502;16.732;2023-05-27T00:36:21;5.84;94.65
72320;SHT30;60269;52.502;16.732;2023-05-27T00:39:53;5.93;94.31
72320;SHT30;60269;52.502;16.732;2023-05-27T00:43:25;5.98;94.09
72320;SHT30;60269;52.502;16.732;2023-05-27T00:46:57;5.93;94.29
72320;SHT30;60269;52.502;16.732;2023-05-27T00:50:29;5.93;94.30
72320;SHT30;60269;52.502;16.732;2023-05-27T00:54:01;5.91;94.06
72320;SHT30;60269;52.502;16.732;2023-05-27T00:57:34;5.88;94.23
72320;SHT30;60269;52.502;16.732;2023-05-27T01:01:06;5.70;94.66
72320;SHT30;60269;52.502;16.732;2023-05-27T01:04:39;5.60;95.29
72320;SHT30;60269;52.502;16.732;2023-05-27T01:11:59;5.36;96.02
72320;SHT30;60269;52.502;16.732;2023-05-27T01:15:35;5.30;96.22
72320;SHT30;60269;52.502;16.732;2023-05-27T01:19:14;5.32;96.25
72320;SHT30;60269;52.502;16.732;2023-05-27T01:22:50;5.16;96.76
72320;SHT30;60269;52.502;16.732;2023-05-27T01:26:25;5.16;96.65
72320;SHT30;60269;52.502;16.732;2023-05-27T01:29:57;5.11;97.14
72320;SHT30;60269;52.502;16.732;2023-05-27T01:33:33;5.12;97.33
72320;SHT30;60269;52.502;16.732;2023-05-27T01:37:09;5.09;97.41
72320;SHT30;60269;52.502;16.732;2023-05-27T01:40:44;5.05;97.52
72320;SHT30;60269;52.502;16.732;2023-05-27T01:44:17;4.96;97.66
72320;SHT30;60269;52.502;16.732;2023-05-27T01:47:50;4.92;97.79
72320;SHT30;60269;52.502;16.732;2023-05-27T01:51:22;4.85;97.83
72320;SHT30;60269;52.502;16.732;2023-05-27T01:54:54;4.77;97.81
72320;SHT30;60269;52.502;16.732;2023-05-27T01:58:26;4.72;97.85
72320;SHT30;60269;52.502;16.732;2023-05-27T02:01:58;4.54;98.12
72320;SHT30;60269;52.502;16.732;2023-05-27T02:05:30;4.58;98.45
72320;SHT30;60269;52.502;16.732;2023-05-27T02:09:03;4.58;98.42
72320;SHT30;60269;52.502;16.732;2023-05-27T02:12:35;4.48;98.55
72320;SHT30;60269;52.502;16.732;2023-05-27T02:16:07;4.56;98.64
72320;SHT30;60269;52.502;16.732;2023-05-27T02:19:40;4.56;98.75
72320;SHT30;60269;52.502;16.732;2023-05-27T02:23:12;4.60;98.81
72320;SHT30;60269;52.502;16.732;2023-05-27T02:26:44;4.53;98.86
72320;SHT30;60269;52.502;16.732;2023-05-27T02:30:16;4.48;98.82
72320;SHT30;60269;52.502;16.732;2023-05-27T02:33:48;4.46;98.70
72320;SHT30;60269;52.502;16.732;2023-05-27T02:37:20;4.47;98.51
72320;SHT30;60269;52.502;16.732;2023-05-27T02:40:52;4.44;98.78
72320;SHT30;60269;52.502;16.732;2023-05-27T02:44:24;4.57;98.27
72320;SHT30;60269;52.502;16.732;2023-05-27T02:47:57;4.54;97.89
72320;SHT30;60269;52.502;16.732;2023-05-27T02:51:32;4.44;97.86
72320;SHT30;60269;52.502;16.732;2023-05-27T02:55:04;4.43;98.17
72320;SHT30;60269;52.502;16.732;2023-05-27T02:58:37;4.37;98.62
72320;SHT30;60269;52.502;16.732;2023-05-27T03:02:10;4.40;98.66
72320;SHT30;60269;52.502;16.732;2023-05-27T03:05:42;4.39;98.63
72320;SHT30;60269;52.502;16.732;2023-05-27T03:09:14;4.50;98.68
72320;SHT30;60269;52.502;16.732;2023-05-27T03:12:46;4.57;98.86
72320;SHT30;60269;52.502;16.732;2023-05-27T03:16:18;4.58;99.00
72320;SHT30;60269;52.502;16.732;2023-05-27T03:19:51;4.65;98.90
72320;SHT30;60269;52.502;16.732;2023-05-27T03:23:23;4.71;98.90
72320;SHT30;60269;52.502;16.732;2023-05-27T03:26:56;4.78;98.55
72320;SHT30;60269;52.502;16.732;2023-05-27T03:30:28;4.81;98.50
72320;SHT30;60269;52.502;16.732;2023-05-27T03:34:00;4.89;98.57
72320;SHT30;60269;52.502;16.732;2023-05-27T03:37:32;4.99;98.51
72320;SHT30;60269;52.502;16.732;2023-05-27T03:41:04;5.00;98.38
72320;SHT30;60269;52.502;16.732;2023-05-27T03:44:39;5.13;98.01
72320;SHT30;60269;52.502;16.732;2023-05-27T03:48:11;5.20;98.24
72320;SHT30;60269;52.502;16.732;2023-05-27T03:51:43;5.42;98.05
72320;SHT30;60269;52.502;16.732;2023-05-27T03:55:16;5.68;97.41
72320;SHT30;60269;52.502;16.732;2023-05-27T03:58:52;5.88;96.97
72320;SHT30;60269;52.502;16.732;2023-05-27T04:02:24;5.97;96.88
72320;SHT30;60269;52.502;16.732;2023-05-27T04:05:57;6.11;96.59
72320;SHT30;60269;52.502;16.732;2023-05-27T04:09:30;6.26;96.14
72320;SHT30;60269;52.502;16.732;2023-05-27T04:13:02;6.36;95.93
72320;SHT30;60269;52.502;16.732;2023-05-27T04:16:34;6.54;95.50
72320;SHT30;60269;52.502;16.732;2023-05-27T04:20:08;6.69;94.90
72320;SHT30;60269;52.502;16.732;2023-05-27T04:23:45;6.84;94.81
72320;SHT30;60269;52.502;16.732;2023-05-27T04:27:17;7.12;93.81
72320;SHT30;60269;52.502;16.732;2023-05-27T04:30:50;7.21;93.47
72320;SHT30;60269;52.502;16.732;2023-05-27T04:34:23;7.35;92.65
72320;SHT30;60269;52.502;16.732;2023-05-27T04:37:54;7.55;92.35
72320;SHT30;60269;52.502;16.732;2023-05-27T04:41:28;7.80;91.93
72320;SHT30;60269;52.502;16.732;2023-05-27T04:44:59;8.00;91.53
72320;SHT30;60269;52.502;16.732;2023-05-27T04:48:32;8.46;90.11
72320;SHT30;60269;52.502;16.732;2023-05-27T04:52:07;8.75;89.54
72320;SHT30;60269;52.502;16.732;2023-05-27T04:55:39;9.24;88.27
72320;SHT30;60269;52.502;16.732;2023-05-27T04:59:16;9.92;86.09
72320;SHT30;60269;52.502;16.732;2023-05-27T05:02:50;10.41;83.31
72320;SHT30;60269;52.502;16.732;2023-05-27T05:06:33;11.24;81.46
72320;SHT30;60269;52.502;16.732;2023-05-27T05:10:08;11.84;77.28
72320;SHT30;60269;52.502;16.732;2023-05-27T05:13:40;12.25;75.57
72320;SHT30;60269;52.502;16.732;2023-05-27T05:17:12;12.50;74.46
72320;SHT30;60269;52.502;16.732;2023-05-27T05:20:44;12.84;72.65
72320;SHT30;60269;52.502;16.732;2023-05-27T05:24:16;13.25;71.19
72320;SHT30;60269;52.502;16.732;2023-05-27T05:27:48;13.55;70.38
72320;SHT30;60269;52.502;16.732;2023-05-27T05:31:20;13.87;69.19
72320;SHT30;60269;52.502;16.732;2023-05-27T05:34:52;14.30;68.24
72320;SHT30;60269;52.502;16.732;2023-05-27T05:38:26;14.86;67.17
72320;SHT30;60269;52.502;16.732;2023-05-27T05:41:58;15.20;64.50
72320;SHT30;60269;52.502;16.732;2023-05-27T05:45:31;15.43;64.09
72320;SHT30;60269;52.502;16.732;2023-05-27T05:49:04;15.69;63.11
72320;SHT30;60269;52.502;16.732;2023-05-27T05:52:36;15.86;61.79
72320;SHT30;60269;52.502;16.732;2023-05-27T05:56:08;16.30;60.14
72320;SHT30;60269;52.502;16.732;2023-05-27T05:59:40;16.37;60.59
72320;SHT30;60269;52.502;16.732;2023-05-27T06:03:13;16.88;58.63
72320;SHT30;60269;52.502;16.732;2023-05-27T06:06:45;16.65;58.95
72320;SHT30;60269;52.502;16.732;2023-05-27T06:10:17;16.87;58.58
72320;SHT30;60269;52.502;16.732;2023-05-27T06:13:48;17.11;56.98
72320;SHT30;60269;52.502;16.732;2023-05-27T06:17:21;17.59;56.14
72320;SHT30;60269;52.502;16.732;2023-05-27T06:20:53;17.98;54.64
72320;SHT30;60269;52.502;16.732;2023-05-27T06:24:25;18.32;53.09
72320;SHT30;60269;52.502;16.732;2023-05-27T06:27:57;18.65;51.73
72320;SHT30;60269;52.502;16.732;2023-05-27T06:31:30;18.97;52.05
72320;SHT30;60269;52.502;16.732;2023-05-27T06:35:04;19.50;50.17
72320;SHT30;60269;52.502;16.732;2023-05-27T06:38:36;19.39;48.75
72320;SHT30;60269;52.502;16.732;2023-05-27T06:42:09;19.11;48.30
72320;SHT30;60269;52.502;16.732;2023-05-27T06:45:41;19.35;49.43
72320;SHT30;60269;52.502;16.732;2023-05-27T06:49:33;19.48;46.57
72320;SHT30;60269;52.502;16.732;2023-05-27T06:53:05;19.96;45.03
72320;SHT30;60269;52.502;16.732;2023-05-27T06:56:37;19.86;45.24
72320;SHT30;60269;52.502;16.732;2023-05-27T07:00:09;20.45;44.12
72320;SHT30;60269;52.502;16.732;2023-05-27T07:03:41;20.06;44.35
72320;SHT30;60269;52.502;16.732;2023-05-27T07:07:14;20.65;43.39
72320;SHT30;60269;52.502;16.732;2023-05-27T07:10:46;21.02;40.46
72320;SHT30;60269;52.502;16.732;2023-05-27T07:14:18;20.84;39.17
72320;SHT30;60269;52.502;16.732;2023-05-27T07:17:50;20.99;39.89
72320;SHT30;60269;52.502;16.732;2023-05-27T07:21:22;21.09;39.11
72320;SHT30;60269;52.502;16.732;2023-05-27T07:24:54;21.53;35.95
72320;SHT30;60269;52.502;16.732;2023-05-27T07:28:26;21.67;35.76
72320;SHT30;60269;52.502;16.732;2023-05-27T07:31:58;21.54;34.74
72320;SHT30;60269;52.502;16.732;2023-05-27T07:35:30;21.76;33.67
72320;SHT30;60269;52.502;16.732;2023-05-27T07:39:02;21.88;34.70
72320;SHT30;60269;52.502;16.732;2023-05-27T07:42:35;22.34;34.38
72320;SHT30;60269;52.502;16.732;2023-05-27T07:46:07;22.28;34.03
72320;SHT30;60269;52.502;16.732;2023-05-27T07:49:40;22.51;34.37
72320;SHT30;60269;52.502;16.732;2023-05-27T07:53:13;22.73;33.99
72320;SHT30;60269;52.502;16.732;2023-05-27T07:56:45;22.46;33.70
72320;SHT30;60269;52.502;16.732;2023-05-27T08:00:18;21.95;36.41
72320;SHT30;60269;52.502;16.732;2023-05-27T08:03:50;22.72;33.19
72320;SHT30;60269;52.502;16.732;2023-05-27T08:07:22;23.10;31.69
72320;SHT30;60269;52.502;16.732;2023-05-27T08:10:54;22.08;32.37
72320;SHT30;60269;52.502;16.732;2023-05-27T08:14:26;22.06;34.03
72320;SHT30;60269;52.502;16.732;2023-05-27T08:17:59;22.73;34.87
72320;SHT30;60269;52.502;16.732;2023-05-27T08:21:31;23.63;32.36
72320;SHT30;60269;52.502;16.732;2023-05-27T08:25:04;23.51;31.31
72320;SHT30;60269;52.502;16.732;2023-05-27T08:28:36;23.82;32.82
72320;SHT30;60269;52.502;16.732;2023-05-27T08:32:09;24.36;30.62
72320;SHT30;60269;52.502;16.732;2023-05-27T08:35:41;24.43;29.34
72320;SHT30;60269;52.502;16.732;2023-05-27T08:39:13;23.73;31.04
72320;SHT30;60269;52.502;16.732;2023-05-27T08:42:48;23.40;31.09
72320;SHT30;60269;52.502;16.732;2023-05-27T08:46:22;23.42;32.14
72320;SHT30;60269;52.502;16.732;2023-05-27T08:49:54;23.55;29.84
72320;SHT30;60269;52.502;16.732;2023-05-27T08:53:26;23.73;31.23
72320;SHT30;60269;52.502;16.732;2023-05-27T08:56:59;24.37;30.58
72320;SHT30;60269;52.502;16.732;2023-05-27T09:00:32;24.47;31.15
72320;SHT30;60269;52.502;16.732;2023-05-27T09:04:04;24.99;28.02
72320;SHT30;60269;52.502;16.732;2023-05-27T09:07:37;25.16;28.66
72320;SHT30;60269;52.502;16.732;2023-05-27T09:11:22;24.76;29.85
72320;SHT30;60269;52.502;16.732;2023-05-27T09:14:54;25.06;29.31
72320;SHT30;60269;52.502;16.732;2023-05-27T09:18:32;25.49;27.98
72320;SHT30;60269;52.502;16.732;2023-05-27T09:22:04;25.67;28.07
72320;SHT30;60269;52.502;16.732;2023-05-27T09:25:36;24.81;27.78
72320;SHT30;60269;52.502;16.732;2023-05-27T09:29:08;24.86;28.73
72320;SHT30;60269;52.502;16.732;2023-05-27T09:32:40;24.84;27.80
72320;SHT30;60269;52.502;16.732;2023-05-27T09:36:12;25.42;26.25
72320;SHT30;60269;52.502;16.732;2023-05-27T09:39:47;25.42;25.45
72320;SHT30;60269;52.502;16.732;2023-05-27T09:43:24;25.95;24.67
72320;SHT30;60269;52.502;16.732;2023-05-27T09:46:57;26.40;24.94
72320;SHT30;60269;52.502;16.732;2023-05-27T09:50:30;26.05;24.43
72320;SHT30;60269;52.502;16.732;2023-05-27T09:54:04;26.59;24.76
72320;SHT30;60269;52.502;16.732;2023-05-27T09:57:37;26.96;23.92
72320;SHT30;60269;52.502;16.732;2023-05-27T10:01:09;27.12;24.13
72320;SHT30;60269;52.502;16.732;2023-05-27T10:04:42;27.03;23.78
72320;SHT30;60269;52.502;16.732;2023-05-27T10:08:15;26.84;24.09
72320;SHT30;60269;52.502;16.732;2023-05-27T10:11:55;27.18;23.70
72320;SHT30;60269;52.502;16.732;2023-05-27T10:15:31;26.82;24.23
72320;SHT30;60269;52.502;16.732;2023-05-27T10:19:09;26.94;23.41
72320;SHT30;60269;52.502;16.732;2023-05-27T10:22:46;26.36;23.78
72320;SHT30;60269;52.502;16.732;2023-05-27T10:26:18;26.86;23.91
72320;SHT30;60269;52.502;16.732;2023-05-27T10:29:57;27.20;23.44
72320;SHT30;60269;52.502;16.732;2023-05-27T10:33:30;27.55;23.69
72320;SHT30;60269;52.502;16.732;2023-05-27T10:37:03;27.52;22.89
72320;SHT30;60269;52.502;16.732;2023-05-27T10:40:35;28.12;23.01
72320;SHT30;60269;52.502;16.732;2023-05-27T10:44:08;28.58;23.14
72320;SHT30;60269;52.502;16.732;2023-05-27T10:47:44;28.54;23.95
72320;SHT30;60269;52.502;16.732;2023-05-27T10:51:18;28.50;23.28
72320;SHT30;60269;52.502;16.732;2023-05-27T10:54:50;27.72;24.08
72320;SHT30;60269;52.502;16.732;2023-05-27T10:58:24;27.86;23.46
72320;SHT30;60269;52.502;16.732;2023-05-27T11:01:57;27.97;22.96
72320;SHT30;60269;52.502;16.732;2023-05-27T11:05:30;28.58;23.04
72320;SHT30;60269;52.502;16.732;2023-05-27T11:09:04;28.25;23.15
72320;SHT30;60269;52.502;16.732;2023-05-27T11:12:36;28.74;22.29
72320;SHT30;60269;52.502;16.732;2023-05-27T11:16:08;29.00;22.16
72320;SHT30;60269;52.502;16.732;2023-05-27T11:19:41;28.78;22.01
72320;SHT30;60269;52.502;16.732;2023-05-27T11:23:14;28.62;22.18
72320;SHT30;60269;52.502;16.732;2023-05-27T11:26:51;29.40;21.64
72320;SHT30;60269;52.502;16.732;2023-05-27T11:30:24;30.12;20.85
72320;SHT30;60269;52.502;16.732;2023-05-27T11:33:57;29.31;21.58
72320;SHT30;60269;52.502;16.732;2023-05-27T11:37:35;29.29;20.40
72320;SHT30;60269;52.502;16.732;2023-05-27T11:41:13;29.85;19.42
72320;SHT30;60269;52.502;16.732;2023-05-27T11:44:52;29.58;19.56
72320;SHT30;60269;52.502;16.732;2023-05-27T11:48:26;29.15;21.18
72320;SHT30;60269;52.502;16.732;2023-05-27T11:51:58;29.39;21.70
72320;SHT30;60269;52.502;16.732;2023-05-27T11:55:31;29.57;21.54
72320;SHT30;60269;52.502;16.732;2023-05-27T11:59:03;29.82;21.24
72320;SHT30;60269;52.502;16.732;2023-05-27T12:02:35;30.06;21.00
72320;SHT30;60269;52.502;16.732;2023-05-27T12:06:08;30.00;21.26
72320;SHT30;60269;52.502;16.732;2023-05-27T12:09:40;29.82;22.12
72320;SHT30;60269;52.502;16.732;2023-05-27T12:13:12;30.74;19.41
72320;SHT30;60269;52.502;16.732;2023-05-27T12:16:43;30.67;19.27
72320;SHT30;60269;52.502;16.732;2023-05-27T12:20:16;30.67;18.89
72320;SHT30;60269;52.502;16.732;2023-05-27T12:23:48;30.60;19.60
72320;SHT30;60269;52.502;16.732;2023-05-27T12:27:20;30.57;20.61
72320;SHT30;60269;52.502;16.732;2023-05-27T12:30:53;30.88;19.47
72320;SHT30;60269;52.502;16.732;2023-05-27T12:34:25;30.52;19.09
72320;SHT30;60269;52.502;16.732;2023-05-27T12:38:02;30.87;19.92
72320;SHT30;60269;52.502;16.732;2023-05-27T12:41:35;31.57;18.63
72320;SHT30;60269;52.502;16.732;2023-05-27T12:45:11;31.99;17.96
72320;SHT30;60269;52.502;16.732;2023-05-27T12:48:43;31.57;19.24
72320;SHT30;60269;52.502;16.732;2023-05-27T12:52:15;30.88;19.15
72320;SHT30;60269;52.502;16.732;2023-05-27T12:55:47;31.52;19.30
72320;SHT30;60269;52.502;16.732;2023-05-27T12:59:20;32.10;18.79
72320;SHT30;60269;52.502;16.732;2023-05-27T13:02:52;32.64;18.23
72320;SHT30;60269;52.502;16.732;2023-05-27T13:06:24;31.93;18.84
72320;SHT30;60269;52.502;16.732;2023-05-27T13:09:56;31.76;19.51
72320;SHT30;60269;52.502;16.732;2023-05-27T13:13:28;31.53;19.50
72320;SHT30;60269;52.502;16.732;2023-05-27T13:17:00;31.46;19.93
72320;SHT30;60269;52.502;16.732;2023-05-27T13:20:33;31.41;19.32
72320;SHT30;60269;52.502;16.732;2023-05-27T13:24:06;31.82;19.53
72320;SHT30;60269;52.502;16.732;2023-05-27T13:27:39;31.97;19.34
72320;SHT30;60269;52.502;16.732;2023-05-27T13:31:13;32.14;18.60
72320;SHT30;60269;52.502;16.732;2023-05-27T13:34:45;31.93;18.08
72320;SHT30;60269;52.502;16.732;2023-05-27T13:38:18;31.85;19.04
72320;SHT30;60269;52.502;16.732;2023-05-27T13:41:50;31.86;19.13
72320;SHT30;60269;52.502;16.732;2023-05-27T13:45:22;31.90;18.68
72320;SHT30;60269;52.502;16.732;2023-05-27T13:48:54;32.05;19.64
72320;SHT30;60269;52.502;16.732;2023-05-27T13:52:26;31.86;18.34
72320;SHT30;60269;52.502;16.732;2023-05-27T13:55:58;31.80;18.12
72320;SHT30;60269;52.502;16.732;2023-05-27T13:59:30;32.02;17.45
72320;SHT30;60269;52.502;16.732;2023-05-27T14:03:02;32.26;17.58
72320;SHT30;60269;52.502;16.732;2023-05-27T14:06:34;32.24;18.07
72320;SHT30;60269;52.502;16.732;2023-05-27T14:10:08;31.96;18.17
72320;SHT30;60269;52.502;16.732;2023-05-27T14:13:39;32.31;17.25
72320;SHT30;60269;52.502;16.732;2023-05-27T14:17:12;32.44;17.96
72320;SHT30;60269;52.502;16.732;2023-05-27T14:20:44;32.41;17.26
72320;SHT30;60269;52.502;16.732;2023-05-27T14:24:16;31.80;18.05
72320;SHT30;60269;52.502;16.732;2023-05-27T14:27:48;30.88;19.21
72320;SHT30;60269;52.502;16.732;2023-05-27T14:31:20;31.38;18.30
72320;SHT30;60269;52.502;16.732;2023-05-27T14:34:52;30.86;18.60
72320;SHT30;60269;52.502;16.732;2023-05-27T14:38:24;31.66;17.75
72320;SHT30;60269;52.502;16.732;2023-05-27T14:41:57;31.61;18.55
72320;SHT30;60269;52.502;16.732;2023-05-27T14:45:32;31.57;18.71
72320;SHT30;60269;52.502;16.732;2023-05-27T14:49:05;32.19;18.55
72320;SHT30;60269;52.502;16.732;2023-05-27T14:52:37;31.94;18.36
72320;SHT30;60269;52.502;16.732;2023-05-27T14:56:09;30.74;18.71
72320;SHT30;60269;52.502;16.732;2023-05-27T14:59:44;29.97;19.78
72320;SHT30;60269;52.502;16.732;2023-05-27T15:03:15;30.31;20.44
72320;SHT30;60269;52.502;16.732;2023-05-27T15:06:48;30.01;19.53
72320;SHT30;60269;52.502;16.732;2023-05-27T15:10:20;30.59;19.74
72320;SHT30;60269;52.502;16.732;2023-05-27T15:13:52;30.95;18.71
72320;SHT30;60269;52.502;16.732;2023-05-27T15:17:27;30.66;19.46
72320;SHT30;60269;52.502;16.732;2023-05-27T15:21:04;30.66;19.21
72320;SHT30;60269;52.502;16.732;2023-05-27T15:25:01;30.73;20.32
72320;SHT30;60269;52.502;16.732;2023-05-27T15:28:33;30.70;19.83
72320;SHT30;60269;52.502;16.732;2023-05-27T15:32:05;30.76;20.87
72320;SHT30;60269;52.502;16.732;2023-05-27T15:35:37;30.87;19.69
72320;SHT30;60269;52.502;16.732;2023-05-27T15:39:09;31.22;19.05
72320;SHT30;60269;52.502;16.732;2023-05-27T15:42:41;30.24;19.09
72320;SHT30;60269;52.502;16.732;2023-05-27T15:46:13;29.97;19.16
72320;SHT30;60269;52.502;16.732;2023-05-27T15:49:49;29.47;19.77
72320;SHT30;60269;52.502;16.732;2023-05-27T15:53:21;29.39;19.04
72320;SHT30;60269;52.502;16.732;2023-05-27T15:56:54;29.85;18.82
72320;SHT30;60269;52.502;16.732;2023-05-27T16:00:26;30.09;18.59
72320;SHT30;60269;52.502;16.732;2023-05-27T16:03:58;29.19;19.70
72320;SHT30;60269;52.502;16.732;2023-05-27T16:07:30;29.49;19.47
72320;SHT30;60269;52.502;16.732;2023-05-27T16:11:02;29.49;19.37
72320;SHT30;60269;52.502;16.732;2023-05-27T16:14:34;29.60;19.03
72320;SHT30;60269;52.502;16.732;2023-05-27T16:18:06;29.22;20.29
72320;SHT30;60269;52.502;16.732;2023-05-27T16:21:39;29.08;19.92
72320;SHT30;60269;52.502;16.732;2023-05-27T16:25:11;28.91;20.25
72320;SHT30;60269;52.502;16.732;2023-05-27T16:28:43;28.25;20.14
72320;SHT30;60269;52.502;16.732;2023-05-27T16:32:15;28.14;20.68
72320;SHT30;60269;52.502;16.732;2023-05-27T16:36:16;28.36;19.80
72320;SHT30;60269;52.502;16.732;2023-05-27T16:39:48;28.20;19.88
72320;SHT30;60269;52.502;16.732;2023-05-27T16:43:20;28.20;19.68
72320;SHT30;60269;52.502;16.732;2023-05-27T16:46:53;27.75;20.79
72320;SHT30;60269;52.502;16.732;2023-05-27T16:50:25;27.52;21.29
72320;SHT30;60269;52.502;16.732;2023-05-27T16:53:57;27.44;21.06
72320;SHT30;60269;52.502;16.732;2023-05-27T16:57:34;27.42;21.68
72320;SHT30;60269;52.502;16.732;2023-05-27T17:01:06;27.14;21.85
72320;SHT30;60269;52.502;16.732;2023-05-27T17:04:38;27.15;22.41
72320;SHT30;60269;52.502;16.732;2023-05-27T17:08:10;26.79;22.83
72320;SHT30;60269;52.502;16.732;2023-05-27T17:11:42;26.55;22.33
72320;SHT30;60269;52.502;16.732;2023-05-27T17:15:14;26.29;22.61
72320;SHT30;60269;52.502;16.732;2023-05-27T17:18:46;25.85;23.84
72320;SHT30;60269;52.502;16.732;2023-05-27T17:22:19;25.29;25.06
72320;SHT30;60269;52.502;16.732;2023-05-27T17:25:51;25.16;25.42
72320;SHT30;60269;52.502;16.732;2023-05-27T17:29:23;24.96;25.84
72320;SHT30;60269;52.502;16.732;2023-05-27T17:32:55;24.31;26.24
72320;SHT30;60269;52.502;16.732;2023-05-27T17:36:27;23.95;27.28
72320;SHT30;60269;52.502;16.732;2023-05-27T17:39:59;23.62;26.70
72320;SHT30;60269;52.502;16.732;2023-05-27T17:43:33;23.22;26.66
72320;SHT30;60269;52.502;16.732;2023-05-27T17:47:05;22.94;26.94
72320;SHT30;60269;52.502;16.732;2023-05-27T17:50:38;22.64;27.18
72320;SHT30;60269;52.502;16.732;2023-05-27T17:54:11;22.43;27.91
72320;SHT30;60269;52.502;16.732;2023-05-27T17:57:43;22.08;28.86
72320;SHT30;60269;52.502;16.732;2023-05-27T18:01:15;21.64;29.27
72320;SHT30;60269;52.502;16.732;2023-05-27T18:04:47;21.37;30.02
72320;SHT30;60269;52.502;16.732;2023-05-27T18:08:19;20.98;30.48
72320;SHT30;60269;52.502;16.732;2023-05-27T18:11:51;20.58;30.96
72320;SHT30;60269;52.502;16.732;2023-05-27T18:15:23;20.24;31.41
72320;SHT30;60269;52.502;16.732;2023-05-27T18:18:55;19.71;32.50
72320;SHT30;60269;52.502;16.732;2023-05-27T18:22:27;19.31;33.30
72320;SHT30;60269;52.502;16.732;2023-05-27T18:25:59;18.96;33.85
72320;SHT30;60269;52.502;16.732;2023-05-27T18:29:31;18.29;35.05
72320;SHT30;60269;52.502;16.732;2023-05-27T18:33:04;17.49;36.54
72320;SHT30;60269;52.502;16.732;2023-05-27T18:36:37;16.75;37.86
72320;SHT30;60269;52.502;16.732;2023-05-27T18:40:10;16.29;39.37
72320;SHT30;60269;52.502;16.732;2023-05-27T18:43:42;15.88;40.29
72320;SHT30;60269;52.502;16.732;2023-05-27T18:47:14;15.47;41.55
72320;SHT30;60269;52.502;16.732;2023-05-27T18:50:46;15.03;42.96
72320;SHT30;60269;52.502;16.732;2023-05-27T18:54:19;14.71;43.90
72320;SHT30;60269;52.502;16.732;2023-05-27T18:57:51;14.41;44.86
72320;SHT30;60269;52.502;16.732;2023-05-27T19:01:23;14.00;45.85
72320;SHT30;60269;52.502;16.732;2023-05-27T19:04:57;13.79;46.38
72320;SHT30;60269;52.502;16.732;2023-05-27T19:08:32;13.53;47.47
72320;SHT30;60269;52.502;16.732;2023-05-27T19:12:04;13.41;47.96
72320;SHT30;60269;52.502;16.732;2023-05-27T19:15:38;13.16;47.98
72320;SHT30;60269;52.502;16.732;2023-05-27T19:19:12;13.03;48.40
72320;SHT30;60269;52.502;16.732;2023-05-27T19:22:45;12.77;49.12
72320;SHT30;60269;52.502;16.732;2023-05-27T19:26:17;12.52;50.59
72320;SHT30;60269;52.502;16.732;2023-05-27T19:29:49;12.30;51.90
72320;SHT30;60269;52.502;16.732;2023-05-27T19:33:21;12.15;52.85
72320;SHT30;60269;52.502;16.732;2023-05-27T19:36:54;11.98;53.38
72320;SHT30;60269;52.502;16.732;2023-05-27T19:40:26;11.81;54.20
72320;SHT30;60269;52.502;16.732;2023-05-27T19:43:58;11.89;53.80
72320;SHT30;60269;52.502;16.732;2023-05-27T19:47:29;11.80;53.46
72320;SHT30;60269;52.502;16.732;2023-05-27T19:51:02;11.80;52.52
72320;SHT30;60269;52.502;16.732;2023-05-27T19:54:36;11.75;52.70
72320;SHT30;60269;52.502;16.732;2023-05-27T19:58:08;11.70;52.57
72320;SHT30;60269;52.502;16.732;2023-05-27T20:01:40;11.63;52.59
72320;SHT30;60269;52.502;16.732;2023-05-27T20:05:12;11.54;53.24
72320;SHT30;60269;52.502;16.732;2023-05-27T20:08:44;11.44;52.87
72320;SHT30;60269;52.502;16.732;2023-05-27T20:12:16;11.37;53.46
72320;SHT30;60269;52.502;16.732;2023-05-27T20:15:48;11.32;53.29
72320;SHT30;60269;52.502;16.732;2023-05-27T20:19:21;11.27;53.36
72320;SHT30;60269;52.502;16.732;2023-05-27T20:22:52;11.24;53.19
72320;SHT30;60269;52.502;16.732;2023-05-27T20:26:25;11.16;53.34
72320;SHT30;60269;52.502;16.732;2023-05-27T20:29:57;11.06;53.85
72320;SHT30;60269;52.502;16.732;2023-05-27T20:33:29;10.86;54.49
72320;SHT30;60269;52.502;16.732;2023-05-27T20:37:01;10.91;54.20
72320;SHT30;60269;52.502;16.732;2023-05-27T20:40:33;10.88;54.40
72320;SHT30;60269;52.502;16.732;2023-05-27T20:44:05;10.89;54.25
72320;SHT30;60269;52.502;16.732;2023-05-27T20:47:37;10.93;54.33
72320;SHT30;60269;52.502;16.732;2023-05-27T20:51:11;10.88;54.38
72320;SHT30;60269;52.502;16.732;2023-05-27T20:54:43;10.81;54.91
72320;SHT30;60269;52.502;16.732;2023-05-27T20:58:15;10.75;55.41
72320;SHT30;60269;52.502;16.732;2023-05-27T21:01:48;10.57;56.71
72320;SHT30;60269;52.502;16.732;2023-05-27T21:05:20;10.23;58.30
72320;SHT30;60269;52.502;16.732;2023-05-27T21:08:52;9.90;59.64
72320;SHT30;60269;52.502;16.732;2023-05-27T21:12:24;9.63;60.17
72320;SHT30;60269;52.502;16.732;2023-05-27T21:15:59;9.45;61.01
72320;SHT30;60269;52.502;16.732;2023-05-27T21:19:32;9.37;61.91
72320;SHT30;60269;52.502;16.732;2023-05-27T21:23:04;9.21;62.93
72320;SHT30;60269;52.502;16.732;2023-05-27T21:26:37;9.42;60.67
72320;SHT30;60269;52.502;16.732;2023-05-27T21:30:09;9.47;61.51
72320;SHT30;60269;52.502;16.732;2023-05-27T21:33:43;9.35;61.36
72320;SHT30;60269;52.502;16.732;2023-05-27T21:37:15;9.54;59.86
72320;SHT30;60269;52.502;16.732;2023-05-27T21:40:47;9.65;60.31
72320;SHT30;60269;52.502;16.732;2023-05-27T21:44:19;9.61;60.08
72320;SHT30;60269;52.502;16.732;2023-05-27T21:47:51;9.51;60.14
72320;SHT30;60269;52.502;16.732;2023-05-27T21:51:23;9.59;59.62
72320;SHT30;60269;52.502;16.732;2023-05-27T21:54:57;9.61;60.20
72320;SHT30;60269;52.502;16.732;2023-05-27T21:58:29;9.42;60.58
72320;SHT30;60269;52.502;16.732;2023-05-27T22:02:02;9.32;60.82
72320;SHT30;60269;52.502;16.732;2023-05-27T22:05:35;9.06;62.12
72320;SHT30;60269;52.502;16.732;2023-05-27T22:09:07;8.80;63.17
72320;SHT30;60269;52.502;16.732;2023-05-27T22:12:40;8.59;63.83